createdAt,value
2022-11-27T00:02:21.534Z,71.08
2022-11-27T00:04:54.424Z,71.15
2022-11-27T00:07:27.274Z,71.38
2022-11-27T00:10:01.519Z,70.46
2022-11-27T00:12:34.433Z,70.67
2022-11-27T00:15:07.811Z,70.74
2022-11-27T00:17:40.695Z,69.93
2022-11-27T00:20:14.543Z,70.85
2022-11-27T00:22:47.718Z,70.59
2022-11-27T00:25:21.959Z,70.81
2022-11-27T00:27:55.262Z,70.18
2022-11-27T00:30:28.040Z,70.52
2022-11-27T00:33:00.882Z,70.56
2022-11-27T00:35:33.661Z,70.27
2022-11-27T00:38:06.486Z,69.82
2022-11-27T00:40:40.699Z,69.81
2022-11-27T00:43:13.512Z,69.67
2022-11-27T00:45:50.180Z,70.06
2022-11-27T00:48:23.058Z,70.38
2022-11-27T00:51:00.787Z,69.59
2022-11-27T00:53:34.233Z,69.99
2022-11-27T00:56:09.685Z,69.73
2022-11-27T00:58:42.690Z,69.73
2022-11-27T01:01:19.116Z,69.86
2022-11-27T01:03:52.676Z,70.25
2022-11-27T01:06:26.232Z,69.89
2022-11-27T01:08:59.476Z,69.78
2022-11-27T01:11:36.353Z,69.45
2022-11-27T01:14:12.296Z,69.32
2022-11-27T01:16:45.239Z,69.04
2022-11-27T01:19:18.398Z,69.42
2022-11-27T01:21:51.193Z,69.45
2022-11-27T01:24:24.117Z,69.32
2022-11-27T01:26:58.288Z,68.95
2022-11-27T01:29:31.101Z,69.06
2022-11-27T01:32:03.887Z,69.15
2022-11-27T01:34:36.816Z,69.09
2022-11-27T01:37:09.618Z,69.67
2022-11-27T01:39:42.934Z,69.67
2022-11-27T01:42:17.231Z,69.26
2022-11-27T01:44:53.973Z,69.16
2022-11-27T01:47:33.808Z,68.86
2022-11-27T01:50:15.215Z,69.67
2022-11-27T01:52:52.097Z,69.53
2022-11-27T01:55:30.095Z,68.79
2022-11-27T01:58:09.365Z,68.90
2022-11-27T02:00:43.157Z,69.11
2022-11-27T02:03:17.009Z,69.55
2022-11-27T02:05:49.941Z,69.35
2022-11-27T02:08:22.960Z,69.25
2022-11-27T02:11:03.883Z,69.64
2022-11-27T02:13:41.436Z,69.74
2022-11-27T02:16:24.631Z,69.13
2022-11-27T02:19:03.056Z,69.69
2022-11-27T02:21:44.173Z,70.03
2022-11-27T02:24:46.578Z,69.15
2022-11-27T02:27:44.762Z,69.76
2022-11-27T02:30:19.224Z,69.25
2022-11-27T02:32:58.602Z,69.54
2022-11-27T02:35:35.548Z,69.79
2022-11-27T02:38:11.858Z,69.30
2022-11-27T02:40:52.317Z,69.57
2022-11-27T02:43:31.664Z,69.66
2022-11-27T02:46:08.514Z,69.62
2022-11-27T02:48:47.007Z,69.13
2022-11-27T02:51:24.121Z,69.91
2022-11-27T02:54:01.775Z,69.48
2022-11-27T02:56:36.049Z,69.87
2022-11-27T02:59:12.892Z,69.16
2022-11-27T03:01:58.349Z,69.42
2022-11-27T03:04:36.264Z,69.60
2022-11-27T03:07:14.338Z,69.58
2022-11-27T03:09:51.037Z,69.63
2022-11-27T03:12:24.022Z,69.96
2022-11-27T03:14:57.036Z,69.74
2022-11-27T03:17:53.367Z,69.21
2022-11-27T03:20:29.151Z,69.31
2022-11-27T03:23:02.108Z,68.93
2022-11-27T03:25:35.099Z,68.62
2022-11-27T03:28:11.548Z,68.69
2022-11-27T03:30:44.489Z,68.77
2022-11-27T03:33:19.444Z,68.37
2022-11-27T03:35:53.553Z,68.28
2022-11-27T03:38:26.608Z,68.24
2022-11-27T03:41:07.467Z,67.52
2022-11-27T03:43:50.180Z,67.56
2022-11-27T03:46:30.635Z,67.85
2022-11-27T03:49:15.345Z,67.53
2022-11-27T03:51:54.711Z,67.95
2022-11-27T03:54:41.211Z,67.74
2022-11-27T03:57:20.205Z,67.65
2022-11-27T03:59:56.580Z,67.50
2022-11-27T04:02:38.924Z,67.46
2022-11-27T04:05:13.914Z,67.78
2022-11-27T04:07:47.249Z,68.07
2022-11-27T04:10:20.296Z,68.18
2022-11-27T04:12:53.159Z,68.74
2022-11-27T04:15:26.401Z,68.95
2022-11-27T04:17:59.505Z,68.70
2022-11-27T04:20:33.792Z,68.83
2022-11-27T04:23:06.652Z,69.48
2022-11-27T04:25:39.454Z,69.48
2022-11-27T04:28:12.498Z,69.72
2022-11-27T04:30:45.549Z,69.95
2022-11-27T04:33:18.369Z,69.68
2022-11-27T04:35:52.967Z,70.09
2022-11-27T04:38:25.863Z,69.64
2022-11-27T04:40:58.979Z,69.40
2022-11-27T04:43:31.819Z,69.19
2022-11-27T04:46:04.711Z,69.40
2022-11-27T04:48:37.649Z,69.07
2022-11-27T04:51:11.808Z,68.90
2022-11-27T04:53:44.733Z,69.07
2022-11-27T04:56:17.523Z,69.10
2022-11-27T04:58:50.475Z,69.31
2022-11-27T05:01:23.281Z,69.24
2022-11-27T05:03:56.277Z,70.01
2022-11-27T05:06:30.508Z,69.81
2022-11-27T05:09:03.486Z,69.91
2022-11-27T05:11:36.300Z,69.12
2022-11-27T05:14:18.262Z,69.36
2022-11-27T05:16:53.788Z,68.70
2022-11-27T05:19:28.810Z,68.46
2022-11-27T05:22:03.197Z,68.02
2022-11-27T05:24:36.744Z,68.34
2022-11-27T05:27:09.554Z,68.08
2022-11-27T05:29:43.687Z,68.05
2022-11-27T05:32:16.499Z,68.60
2022-11-27T05:34:49.963Z,69.15
2022-11-27T05:37:24.144Z,69.67
2022-11-27T05:39:57.023Z,70.10
2022-11-27T05:42:29.809Z,70.93
2022-11-27T05:45:02.726Z,70.84
2022-11-27T05:47:35.504Z,71.11
2022-11-27T05:50:09.717Z,71.42
2022-11-27T05:52:43.905Z,71.44
2022-11-27T05:55:16.717Z,71.82
2022-11-27T05:57:49.623Z,71.27
2022-11-27T06:00:23.091Z,71.31
2022-11-27T06:02:56.958Z,71.02
2022-11-27T06:05:29.827Z,71.05
2022-11-27T06:08:04.029Z,71.05
2022-11-27T06:10:39.294Z,71.17
2022-11-27T06:13:12.064Z,71.73
2022-11-27T06:15:44.931Z,71.23
2022-11-27T06:18:17.718Z,71.37
2022-11-27T06:20:53.081Z,71.44
2022-11-27T06:23:27.410Z,71.04
2022-11-27T06:26:00.326Z,71.37
2022-11-27T06:28:33.066Z,70.67
2022-11-27T06:31:10.808Z,71.25
2022-11-27T06:33:46.402Z,70.99
2022-11-27T06:36:20.327Z,70.83
2022-11-27T06:38:54.537Z,70.74
2022-11-27T06:41:28.676Z,70.86
2022-11-27T06:44:02.096Z,70.36
2022-11-27T06:46:34.938Z,70.78
2022-11-27T06:49:07.726Z,70.33
2022-11-27T06:51:40.539Z,69.95
2022-11-27T06:54:14.693Z,70.06
2022-11-27T06:56:50.091Z,69.73
2022-11-27T06:59:22.879Z,69.59
2022-11-27T07:01:55.817Z,69.46
2022-11-27T07:04:28.619Z,70.18
2022-11-27T07:07:01.423Z,69.80
2022-11-27T07:09:35.599Z,69.67
2022-11-27T07:12:09.224Z,69.95
2022-11-27T07:14:43.193Z,69.59
2022-11-27T07:17:15.992Z,69.54
2022-11-27T07:19:48.922Z,68.81
2022-11-27T07:22:21.741Z,68.88
2022-11-27T07:24:56.298Z,69.29
2022-11-27T07:27:29.100Z,69.39
2022-11-27T07:30:01.900Z,68.58
2022-11-27T07:32:34.762Z,68.92
2022-11-27T07:35:08.500Z,68.29
2022-11-27T07:37:41.568Z,68.69
2022-11-27T07:40:16.314Z,68.68
2022-11-27T07:42:49.118Z,68.66
2022-11-27T07:45:22.143Z,68.46
2022-11-27T07:47:54.992Z,69.02
2022-11-27T07:50:27.790Z,68.24
2022-11-27T07:53:00.599Z,68.59
2022-11-27T07:55:34.797Z,68.66
2022-11-27T07:58:08.458Z,69.26
2022-11-27T08:00:41.273Z,69.16
2022-11-27T08:03:14.206Z,68.92
2022-11-27T08:05:47.006Z,69.28
2022-11-27T08:08:19.856Z,68.50
2022-11-27T08:10:54.073Z,68.88
2022-11-27T08:13:26.910Z,68.26
2022-11-27T08:16:00.412Z,68.86
2022-11-27T08:18:33.290Z,68.71
2022-11-27T08:21:06.329Z,68.94
2022-11-27T08:23:39.221Z,69.13
2022-11-27T08:26:14.199Z,68.44
2022-11-27T08:28:47.119Z,68.30
2022-11-27T08:31:20.810Z,68.24
2022-11-27T08:33:53.799Z,68.56
2022-11-27T08:36:27.708Z,67.67
2022-11-27T08:39:00.578Z,67.31
2022-11-27T08:41:34.784Z,67.83
2022-11-27T08:44:09.486Z,67.53
2022-11-27T08:46:44.091Z,67.33
2022-11-27T08:49:17.146Z,67.00
2022-11-27T08:51:50.022Z,67.32
2022-11-27T08:54:22.802Z,66.81
2022-11-27T08:56:56.939Z,66.78
2022-11-27T08:59:29.951Z,67.28
2022-11-27T09:02:02.863Z,67.49
2022-11-27T09:04:35.744Z,67.27
2022-11-27T09:07:08.689Z,67.65
2022-11-27T09:09:41.651Z,66.82
2022-11-27T09:12:15.851Z,66.95
2022-11-27T09:14:48.751Z,66.72
2022-11-27T09:17:21.571Z,67.07
2022-11-27T09:19:54.530Z,66.76
2022-11-27T09:22:27.345Z,66.60
2022-11-27T09:25:00.329Z,66.93
2022-11-27T09:27:34.552Z,66.34
2022-11-27T09:30:10.128Z,66.51
2022-11-27T09:32:42.942Z,66.89
2022-11-27T09:35:16.438Z,66.68
2022-11-27T09:37:49.286Z,67.07
2022-11-27T09:40:22.208Z,66.74
2022-11-27T09:43:02.943Z,66.65
2022-11-27T09:45:37.292Z,66.72
2022-11-27T09:48:14.874Z,66.28
2022-11-27T09:50:53.140Z,66.10
2022-11-27T09:53:32.303Z,65.68
2022-11-27T09:56:12.165Z,65.51
2022-11-27T09:58:50.617Z,65.12
2022-11-27T10:01:33.953Z,65.51
2022-11-27T10:04:12.355Z,65.17
2022-11-27T10:07:06.399Z,64.98
2022-11-27T10:09:51.410Z,64.90
2022-11-27T10:12:32.800Z,65.15
2022-11-27T10:15:14.459Z,65.13
2022-11-27T10:17:53.992Z,65.25
2022-11-27T10:20:33.278Z,65.74
2022-11-27T10:23:16.127Z,65.94
2022-11-27T10:25:51.218Z,66.56
2022-11-27T10:28:36.596Z,66.64
2022-11-27T10:31:17.684Z,66.94
2022-11-27T10:33:55.932Z,67.03
2022-11-27T10:36:32.024Z,67.19
2022-11-27T10:39:08.233Z,66.88
2022-11-27T10:41:49.726Z,66.02
2022-11-27T10:44:27.609Z,67.15
2022-11-27T10:47:04.261Z,65.87
2022-11-27T10:49:42.247Z,65.34
2022-11-27T10:52:17.350Z,64.95
2022-11-27T10:54:56.165Z,65.07
2022-11-27T10:57:45.113Z,65.05
2022-11-27T11:00:21.877Z,64.32
2022-11-27T11:03:02.564Z,64.44
2022-11-27T11:06:18.827Z,64.66
2022-11-27T11:08:30.230Z,64.52
2022-11-27T11:11:05.826Z,64.15
2022-11-27T11:13:47.069Z,64.00
2022-11-27T11:16:24.629Z,64.37
2022-11-27T11:19:01.612Z,63.92
2022-11-27T11:21:39.305Z,63.44
2022-11-27T11:24:16.988Z,62.95
2022-11-27T11:26:53.715Z,63.07
2022-11-27T11:29:32.443Z,63.14
2022-11-27T11:32:10.867Z,62.87
2022-11-27T11:34:47.813Z,62.36
2022-11-27T11:37:24.846Z,62.94
2022-11-27T11:40:01.036Z,63.11
2022-11-27T11:42:36.465Z,63.48
2022-11-27T11:45:19.056Z,62.37
2022-11-27T11:47:53.745Z,62.20
2022-11-27T11:50:41.434Z,62.21
2022-11-27T11:53:24.344Z,61.76
2022-11-27T11:56:05.129Z,61.55
2022-11-27T11:58:56.348Z,61.62
2022-11-27T12:01:54.474Z,62.21
2022-11-27T12:05:03.649Z,62.54
2022-11-27T12:07:52.879Z,61.99
2022-11-27T12:10:31.422Z,62.66
2022-11-27T12:13:21.070Z,62.86
2022-11-27T12:16:04.715Z,62.67
2022-11-27T12:18:51.374Z,62.18
2022-11-27T12:21:31.522Z,62.40
2022-11-27T12:24:22.435Z,62.39
2022-11-27T12:27:12.723Z,61.81
2022-11-27T12:30:06.661Z,61.67
2022-11-27T12:33:21.674Z,60.73
2022-11-27T12:36:02.648Z,61.05
2022-11-27T12:38:50.956Z,60.82
2022-11-27T12:41:47.838Z,60.72
2022-11-27T12:44:27.983Z,61.16
2022-11-27T12:47:05.499Z,61.51
2022-11-27T12:49:44.780Z,61.91
2022-11-27T12:52:22.593Z,62.03
2022-11-27T12:55:00.730Z,62.33
2022-11-27T12:57:41.470Z,61.99
2022-11-27T13:00:17.978Z,62.57
2022-11-27T13:03:05.882Z,61.91
2022-11-27T13:05:43.016Z,62.60
2022-11-27T13:08:21.490Z,62.70
2022-11-27T13:10:58.491Z,62.20
2022-11-27T13:13:39.236Z,62.57
2022-11-27T13:16:18.788Z,62.73
2022-11-27T13:18:55.874Z,62.91
2022-11-27T13:21:32.323Z,63.51
2022-11-27T13:24:05.848Z,63.21
2022-11-27T13:26:46.192Z,62.48
2022-11-27T13:29:31.946Z,62.38
2022-11-27T13:32:07.692Z,62.33
2022-11-27T13:34:46.893Z,63.15
2022-11-27T13:37:29.289Z,62.29
2022-11-27T13:40:06.253Z,62.65
2022-11-27T13:42:45.424Z,62.76
2022-11-27T13:45:25.800Z,62.66
2022-11-27T13:48:01.278Z,63.45
2022-11-27T13:50:44.519Z,62.99
2022-11-27T13:53:17.291Z,63.32
2022-11-27T13:55:55.974Z,63.50
2022-11-27T13:58:33.655Z,63.79
2022-11-27T14:01:17.497Z,64.26
2022-11-27T14:03:51.200Z,64.51
2022-11-27T14:06:27.253Z,64.34
2022-11-27T14:09:01.953Z,64.56
2022-11-27T14:11:41.376Z,64.39
2022-11-27T14:14:18.586Z,64.67
2022-11-27T14:16:58.860Z,64.71
2022-11-27T14:19:34.993Z,65.11
2022-11-27T14:22:15.511Z,64.55
2022-11-27T14:24:55.998Z,64.84
2022-11-27T14:27:36.128Z,64.78
2022-11-27T14:30:23.860Z,64.86
2022-11-27T14:32:58.066Z,65.11
2022-11-27T14:35:31.071Z,65.15
2022-11-27T14:38:11.108Z,65.30
2022-11-27T14:40:44.693Z,65.64
2022-11-27T14:43:18.943Z,65.39
2022-11-27T14:45:54.011Z,65.41
2022-11-27T14:48:32.436Z,65.39
2022-11-27T14:51:06.095Z,65.38
2022-11-27T14:53:39.385Z,65.36
2022-11-27T14:56:12.479Z,65.65
2022-11-27T14:58:51.330Z,65.39
2022-11-27T15:01:27.417Z,65.38
2022-11-27T15:04:05.623Z,65.58
2022-11-27T15:06:44.916Z,65.56
2022-11-27T15:09:34.606Z,65.75
2022-11-27T15:12:17.969Z,65.50
2022-11-27T15:14:58.301Z,65.51
2022-11-27T15:17:33.717Z,65.56
2022-11-27T15:20:15.919Z,65.32
2022-11-27T15:22:50.758Z,65.51
2022-11-27T15:25:35.741Z,65.54
2022-11-27T15:28:28.528Z,65.51
2022-11-27T15:31:01.762Z,65.65
2022-11-27T15:33:35.270Z,65.68
2022-11-27T15:36:17.048Z,65.46
2022-11-27T15:38:51.036Z,65.83
2022-11-27T15:41:26.418Z,66.05
2022-11-27T15:43:59.491Z,65.77
2022-11-27T15:46:36.317Z,65.90
2022-11-27T15:49:13.001Z,65.85
2022-11-27T15:51:47.610Z,65.98
2022-11-27T15:54:20.711Z,66.06
2022-11-27T15:56:53.645Z,65.89
2022-11-27T15:59:27.413Z,65.98
2022-11-27T16:02:00.342Z,66.04
2022-11-27T16:04:33.218Z,65.87
2022-11-27T16:07:08.341Z,66.07
2022-11-27T16:09:41.211Z,66.10
2022-11-27T16:12:14.008Z,66.32
2022-11-27T16:14:46.790Z,66.16
2022-11-27T16:17:19.667Z,66.32
2022-11-27T16:19:52.493Z,66.26
2022-11-27T16:22:26.804Z,66.41
2022-11-27T16:24:59.631Z,66.18
2022-11-27T16:27:32.521Z,66.18
2022-11-27T16:30:06.221Z,66.42
2022-11-27T16:32:39.269Z,66.35
2022-11-27T16:35:12.064Z,66.27
2022-11-27T16:37:46.276Z,66.64
2022-11-27T16:40:19.361Z,66.78
2022-11-27T16:42:52.260Z,66.71
2022-11-27T16:45:25.081Z,66.76
2022-11-27T16:47:57.979Z,66.39
2022-11-27T16:50:31.200Z,66.41
2022-11-27T16:53:05.444Z,66.32
2022-11-27T16:55:38.218Z,66.59
2022-11-27T16:58:11.034Z,66.82
2022-11-27T17:00:43.894Z,67.16
2022-11-27T17:03:17.165Z,67.11
2022-11-27T17:05:51.569Z,67.52
2022-11-27T17:08:26.095Z,67.25
2022-11-27T17:10:58.880Z,67.41
2022-11-27T17:13:31.825Z,67.59
2022-11-27T17:16:04.993Z,67.11
2022-11-27T17:18:38.737Z,67.62
2022-11-27T17:21:13.459Z,67.14
2022-11-27T17:23:47.801Z,67.16
2022-11-27T17:26:23.532Z,67.47
2022-11-27T17:28:57.549Z,66.82
2022-11-27T17:31:32.736Z,67.35
2022-11-27T17:34:06.620Z,67.20
2022-11-27T17:36:42.118Z,67.06
2022-11-27T17:39:16.778Z,67.38
2022-11-27T17:41:49.999Z,67.31
2022-11-27T17:44:23.214Z,66.95
2022-11-27T17:46:56.040Z,66.74
2022-11-27T17:49:28.890Z,67.75
2022-11-27T17:52:06.109Z,67.37
2022-11-27T17:54:40.976Z,68.04
2022-11-27T17:57:13.772Z,67.56
2022-11-27T17:59:46.577Z,68.17
2022-11-27T18:02:19.484Z,68.20
2022-11-27T18:04:52.596Z,68.82
2022-11-27T18:07:25.564Z,69.17
2022-11-27T18:09:59.855Z,69.07
2022-11-27T18:12:32.691Z,68.76
2022-11-27T18:15:06.330Z,68.90
2022-11-27T18:17:39.555Z,68.76
2022-11-27T18:20:13.942Z,68.78
2022-11-27T18:22:46.774Z,69.06
2022-11-27T18:25:21.031Z,69.31
2022-11-27T18:27:53.872Z,69.14
2022-11-27T18:30:27.012Z,68.75
2022-11-27T18:32:59.908Z,68.69
2022-11-27T18:35:32.972Z,69.15
2022-11-27T18:38:05.800Z,68.71
2022-11-27T18:40:41.705Z,69.18
2022-11-27T18:43:14.539Z,68.92
2022-11-27T18:45:47.672Z,69.06
2022-11-27T18:48:20.596Z,68.92
2022-11-27T18:50:54.065Z,68.71
2022-11-27T18:53:26.914Z,68.43
2022-11-27T18:56:15.727Z,68.28
2022-11-27T18:58:49.505Z,68.44
2022-11-27T19:01:24.758Z,68.93
2022-11-27T19:03:57.746Z,68.86
2022-11-27T19:06:31.514Z,69.01
2022-11-27T19:09:05.531Z,68.63
2022-11-27T19:11:40.673Z,68.78
2022-11-27T19:14:13.905Z,68.53
2022-11-27T19:16:47.164Z,68.97
2022-11-27T19:22:16.876Z,68.89
2022-11-27T19:24:49.806Z,68.95
2022-11-27T19:27:24.111Z,68.78
2022-11-27T19:29:56.902Z,68.62
2022-11-27T19:32:29.799Z,68.91
2022-11-27T19:35:06.959Z,68.37
2022-11-27T19:37:40.184Z,68.27
2022-11-27T19:40:14.296Z,68.41
2022-11-27T19:42:55.562Z,68.52
2022-11-27T19:45:31.236Z,68.27
2022-11-27T19:48:04.260Z,68.14
2022-11-27T19:50:37.147Z,68.09
2022-11-27T19:53:10.024Z,67.87
2022-11-27T19:55:42.860Z,68.08
2022-11-27T19:58:17.454Z,67.70
2022-11-27T20:00:50.297Z,68.11
2022-11-27T20:03:23.476Z,68.27
2022-11-27T20:06:03.249Z,67.73
2022-11-27T20:08:36.716Z,68.43
2022-11-27T20:11:12.759Z,68.04
2022-11-27T20:13:47.434Z,68.35
2022-11-27T20:16:22.314Z,68.15
2022-11-27T20:18:55.640Z,68.08
2022-11-27T20:21:28.619Z,68.53
2022-11-27T20:24:03.035Z,68.36
2022-11-27T20:26:41.173Z,68.35
2022-11-27T20:29:16.813Z,68.12
2022-11-27T20:31:49.806Z,68.15
2022-11-27T20:34:23.407Z,68.39
2022-11-27T20:36:56.205Z,68.20
2022-11-27T20:39:29.441Z,68.28
2022-11-27T20:42:02.371Z,68.18
2022-11-27T20:44:36.588Z,67.94
2022-11-27T20:47:09.726Z,68.03
2022-11-27T20:49:42.979Z,68.17
2022-11-27T20:52:16.098Z,67.72
2022-11-27T20:54:49.035Z,67.96
2022-11-27T20:57:21.975Z,67.80
2022-11-27T20:59:56.240Z,67.51
2022-11-27T21:02:29.114Z,67.65
2022-11-27T21:05:02.000Z,67.59
2022-11-27T21:07:36.601Z,67.68
2022-11-27T21:10:11.513Z,67.58
2022-11-27T21:12:44.621Z,67.69
2022-11-27T21:15:18.956Z,67.56
2022-11-27T21:17:51.866Z,68.16
2022-11-27T21:20:24.723Z,68.17
2022-11-27T21:22:57.577Z,68.22
2022-11-27T21:25:30.661Z,68.00
2022-11-27T21:28:03.603Z,68.13
2022-11-27T21:30:37.834Z,68.06
2022-11-27T21:33:10.657Z,68.13
2022-11-27T21:35:43.912Z,68.43
2022-11-27T21:38:18.471Z,68.55
2022-11-27T21:40:52.073Z,68.54
2022-11-27T21:43:24.957Z,68.50
2022-11-27T21:45:59.362Z,68.53
2022-11-27T21:48:32.226Z,68.16
2022-11-27T21:51:07.051Z,68.13
2022-11-27T21:53:41.152Z,68.08
2022-11-27T21:56:16.506Z,68.09
2022-11-27T21:58:49.671Z,67.91
2022-11-27T22:01:25.981Z,67.97
2022-11-27T22:03:59.198Z,68.20
2022-11-27T22:06:37.567Z,68.22
2022-11-27T22:09:15.339Z,68.08
2022-11-27T22:11:49.254Z,68.53
2022-11-27T22:14:22.140Z,67.95
2022-11-27T22:16:57.250Z,68.30
2022-11-27T22:19:30.148Z,68.20
2022-11-27T22:22:03.050Z,68.05
2022-11-27T22:24:36.141Z,68.53
2022-11-27T22:27:09.024Z,68.16
2022-11-27T22:29:41.873Z,67.97
2022-11-27T22:32:16.414Z,67.99
2022-11-27T22:34:49.185Z,67.92
2022-11-27T22:37:22.023Z,68.01
2022-11-27T22:39:54.865Z,67.88
2022-11-27T22:42:27.823Z,67.75
2022-11-27T22:45:00.715Z,68.01
2022-11-27T22:47:35.007Z,67.91
2022-11-27T22:50:08.569Z,67.93
2022-11-27T22:52:41.540Z,67.83
2022-11-27T22:55:14.387Z,67.90
2022-11-27T22:57:47.256Z,68.13
2022-11-27T23:00:20.426Z,67.91
2022-11-27T23:02:54.688Z,68.14
2022-11-27T23:05:27.562Z,68.47
2022-11-27T23:08:00.568Z,68.13
2022-11-27T23:10:33.368Z,68.31
2022-11-27T23:13:06.270Z,68.02
2022-11-27T23:15:39.116Z,68.12
2022-11-27T23:18:13.467Z,67.97
2022-11-27T23:20:46.265Z,67.82
2022-11-27T23:23:19.083Z,67.64
2022-11-27T23:25:51.942Z,68.05
2022-11-27T23:28:24.896Z,67.63
2022-11-27T23:31:22.368Z,67.78
2022-11-27T23:33:52.710Z,67.41
2022-11-27T23:36:25.603Z,67.79
2022-11-27T23:39:00.736Z,67.51
2022-11-27T23:41:33.846Z,67.77
2022-11-27T23:44:07.041Z,68.29
2022-11-27T23:46:39.847Z,68.02
2022-11-27T23:49:14.273Z,68.10
2022-11-27T23:51:48.163Z,68.03
2022-11-27T23:54:21.107Z,68.26
2022-11-27T23:56:53.893Z,68.44
2022-11-27T23:59:27.117Z,68.34
